Time;durP1;ratioP1;P1;durP2;ratioP2;P2;SDS_P1;SDS_P2;PMS_P1;PMS_P2;Temp;Humidity;BMP_temperature;BMP_pressure;BME280_temperature;BME280_humidity;BME280_pressure;Samples;Min_cycle;Max_cycle;Signal;HPM_P1;HPM_P2
2021/01/03 00:00:53;;;;;;;40.67;21.52;;;2.30;89.80;;;;;;5053355;28;20025;-72
2021/01/03 00:03:19;;;;;;;36.58;19.25;;;2.30;89.80;;;;;;5053463;28;20075;-73
2021/01/03 00:05:45;;;;;;;33.00;18.30;;;2.40;90.00;;;;;;5051784;28;20055;-72
2021/01/03 00:08:10;;;;;;;39.13;20.33;;;2.50;90.10;;;;;;5052645;28;20029;-71
2021/01/03 00:10:36;;;;;;;33.97;19.08;;;2.50;90.00;;;;;;5053025;28;20364;-72
2021/01/03 00:13:02;;;;;;;34.92;19.50;;;2.50;90.00;;;;;;5051726;28;20021;-71
2021/01/03 00:15:27;;;;;;;34.08;18.30;;;2.60;90.10;;;;;;5051677;28;20025;-72
2021/01/03 00:17:53;;;;;;;40.17;19.58;;;2.60;90.00;;;;;;5051509;28;20048;-72
2021/01/03 00:20:25;;;;;;;35.90;18.92;;;2.60;90.00;;;;;;5052777;28;20028;-72
2021/01/03 00:22:52;;;;;;;55.88;27.20;;;2.70;90.00;;;;;;5051718;28;20036;-72
2021/01/03 00:25:19;;;;;;;46.17;22.40;;;2.60;89.60;;;;;;5052709;28;20535;-72
2021/01/03 00:27:46;;;;;;;39.83;19.63;;;2.60;89.80;;;;;;5053081;28;20119;-72
2021/01/03 00:30:14;;;;;;;53.95;25.30;;;2.60;90.00;;;;;;5056982;28;20028;-72
2021/01/03 00:32:42;;;;;;;53.88;25.08;;;2.60;90.00;;;;;;5057186;28;20052;-72
2021/01/03 00:35:10;;;;;;;64.47;27.60;;;2.60;90.00;;;;;;5055681;28;20087;-72
2021/01/03 00:37:36;;;;;;;47.30;23.98;;;2.60;90.00;;;;;;5056514;28;20760;-73
2021/01/03 00:40:05;;;;;;;50.78;23.95;;;2.50;90.00;;;;;;5055446;28;20036;-73
2021/01/03 00:42:31;;;;;;;50.65;23.70;;;2.50;90.00;;;;;;5055376;28;20025;-73
2021/01/03 00:44:57;;;;;;;43.83;21.92;;;2.60;90.10;;;;;;5056914;28;20100;-72
2021/01/03 00:47:22;;;;;;;42.28;21.67;;;2.60;90.20;;;;;;5055299;28;20041;-72
2021/01/03 00:49:48;;;;;;;42.35;21.05;;;2.60;90.10;;;;;;5056708;28;20463;-72
2021/01/03 00:52:14;;;;;;;42.67;22.25;;;2.60;90.20;;;;;;5056393;28;20054;-72
2021/01/03 00:54:39;;;;;;;40.13;20.35;;;2.60;90.20;;;;;;5045603;28;20112;-73
2021/01/03 00:57:05;;;;;;;46.70;22.02;;;2.60;90.20;;;;;;5036679;28;20021;-72
2021/01/03 00:59:31;;;;;;;46.70;22.40;;;2.60;90.20;;;;;;5035139;28;20132;-72
2021/01/03 01:01:57;;;;;;;39.30;20.20;;;2.60;90.30;;;;;;5035960;28;20108;-72
2021/01/03 01:04:22;;;;;;;42.92;19.08;;;2.60;90.30;;;;;;5036526;28;20018;-72
2021/01/03 01:06:48;;;;;;;41.28;20.10;;;2.60;90.30;;;;;;5035450;28;20030;-71
2021/01/03 01:09:14;;;;;;;48.20;24.48;;;2.60;90.40;;;;;;5035013;28;20037;-72
2021/01/03 01:11:41;;;;;;;47.30;22.48;;;2.60;90.30;;;;;;5036473;28;20030;-72
2021/01/03 01:14:07;;;;;;;46.10;21.38;;;2.60;90.40;;;;;;5035981;28;20024;-73
2021/01/03 01:16:34;;;;;;;44.63;21.80;;;2.60;90.40;;;;;;5034979;28;20067;-72
2021/01/03 01:19:00;;;;;;;49.88;24.33;;;2.60;90.40;;;;;;5035973;28;20030;-72
2021/01/03 01:21:27;;;;;;;38.40;20.48;;;2.60;90.30;;;;;;5034862;28;20511;-72
2021/01/03 01:23:53;;;;;;;38.97;19.10;;;2.60;90.40;;;;;;5036474;28;20022;-73
2021/01/03 01:26:18;;;;;;;39.72;18.95;;;2.50;90.30;;;;;;5034894;28;20482;-72
2021/01/03 01:28:44;;;;;;;43.03;19.85;;;2.50;90.30;;;;;;5034546;28;20108;-72
2021/01/03 01:31:10;;;;;;;38.45;18.25;;;2.50;90.40;;;;;;5034727;28;20029;-72
2021/01/03 01:33:36;;;;;;;36.40;17.52;;;2.50;90.50;;;;;;5034647;28;20045;-72
2021/01/03 01:36:01;;;;;;;41.20;18.98;;;2.50;90.60;;;;;;5035577;28;20037;-72
2021/01/03 01:38:27;;;;;;;38.20;18.70;;;2.50;90.60;;;;;;5035858;28;20033;-72
2021/01/03 01:40:55;;;;;;;53.63;18.80;;;2.50;90.60;;;;;;5035174;28;20026;-73
2021/01/03 01:43:21;;;;;;;98.40;20.92;;;2.50;90.70;;;;;;5035644;28;20021;-73
2021/01/03 01:45:47;;;;;;;137.55;24.27;;;2.50;90.80;;;;;;5035648;28;20032;-72
2021/01/03 01:48:33;;;;;;;160.25;26.33;;;2.60;90.90;;;;;;5033935;28;20434;-70
2021/01/03 01:51:05;;;;;;;213.60;27.33;;;2.60;90.90;;;;;;5034396;28;20050;-71
2021/01/03 01:53:49;;;;;;;322.83;34.63;;;2.60;90.90;;;;;;5034492;28;20379;-71
2021/01/03 01:56:41;;;;;;;322.00;34.38;;;2.60;90.90;;;;;;5034226;28;20037;-71
2021/01/03 01:59:34;;;;;;;297.40;33.35;;;2.60;90.90;;;;;;5035795;28;20030;-71
2021/01/03 02:02:03;;;;;;;325.08;33.00;;;2.70;91.00;;;;;;5033739;28;20052;-71
2021/01/03 02:04:41;;;;;;;278.83;30.02;;;2.70;91.00;;;;;;5035274;28;20056;-71
2021/01/03 02:07:39;;;;;;;286.80;34.97;;;2.70;91.10;;;;;;5033748;28;20053;-72
2021/01/03 02:10:34;;;;;;;314.77;37.78;;;2.70;91.10;;;;;;5034102;28;20033;-72
2021/01/03 02:13:06;;;;;;;324.08;35.42;;;2.70;90.90;;;;;;5034206;28;20115;-72
2021/01/03 02:15:33;;;;;;;313.48;34.10;;;2.70;91.00;;;;;;5034893;28;20105;-72
2021/01/03 02:18:03;;;;;;;268.67;31.42;;;2.70;91.00;;;;;;5033685;28;20048;-72
2021/01/03 02:20:36;;;;;;;306.60;34.13;;;2.80;91.10;;;;;;5033930;28;20022;-72
2021/01/03 02:23:06;;;;;;;356.25;35.38;;;2.80;91.00;;;;;;5034007;28;20475;-72
2021/01/03 02:25:32;;;;;;;304.75;34.08;;;2.80;91.10;;;;;;5034935;28;20033;-72
2021/01/03 02:28:15;;;;;;;262.42;28.67;;;2.80;91.10;;;;;;5033076;28;20076;-72
2021/01/03 02:30:45;;;;;;;255.18;28.90;;;2.80;91.20;;;;;;5033793;28;20079;-72
2021/01/03 02:33:33;;;;;;;292.00;35.13;;;2.90;91.20;;;;;;5034663;28;20049;-72
2021/01/03 02:36:08;;;;;;;263.02;28.38;;;2.90;91.30;;;;;;5033154;28;20113;-72
2021/01/03 02:38:38;;;;;;;264.45;30.92;;;3.00;91.30;;;;;;5033512;28;20021;-72
2021/01/03 02:41:04;;;;;;;178.65;27.67;;;3.10;91.40;;;;;;5033565;28;20506;-73
2021/01/03 02:43:30;;;;;;;152.38;25.55;;;3.10;91.30;;;;;;5033714;28;20030;-72
2021/01/03 02:45:56;;;;;;;191.40;27.83;;;3.10;91.30;;;;;;5033174;28;20438;-72
2021/01/03 02:48:24;;;;;;;161.50;26.60;;;3.20;91.30;;;;;;5033115;28;20476;-71
2021/01/03 02:50:50;;;;;;;40.45;16.85;;;3.20;91.30;;;;;;5034311;28;20040;-72
2021/01/03 02:53:17;;;;;;;48.15;19.80;;;3.30;91.30;;;;;;5034505;28;20026;-72
2021/01/03 02:55:43;;;;;;;40.00;18.48;;;3.40;91.40;;;;;;5033263;28;20112;-73
2021/01/03 02:58:08;;;;;;;37.65;17.42;;;3.40;91.20;;;;;;5034050;28;20578;-73
2021/01/03 03:00:37;;;;;;;44.92;19.65;;;3.40;91.10;;;;;;5033302;28;20030;-72
2021/01/03 03:03:04;;;;;;;40.55;18.50;;;3.40;91.10;;;;;;5032888;28;20531;-72
2021/01/03 03:05:30;;;;;;;36.67;17.33;;;3.40;91.10;;;;;;5034166;28;20472;-72
2021/01/03 03:07:56;;;;;;;36.92;17.60;;;3.40;90.90;;;;;;5034201;28;20029;-72
2021/01/03 03:10:22;;;;;;;34.08;15.40;;;3.40;90.60;;;;;;5034533;28;20434;-72
2021/01/03 03:12:49;;;;;;;33.63;16.33;;;3.40;90.70;;;;;;5047795;28;20468;-72
2021/01/03 03:15:17;;;;;;;24.65;11.10;;;3.30;90.50;;;;;;5034101;28;20022;-72
2021/01/03 03:17:42;;;;;;;31.60;14.88;;;3.30;90.50;;;;;;5032472;28;20116;-72
2021/01/03 03:20:10;;;;;;;34.47;16.50;;;3.30;90.50;;;;;;5033642;28;20053;-73
2021/01/03 03:22:36;;;;;;;25.00;12.40;;;3.30;90.60;;;;;;5032581;28;20037;-72
2021/01/03 03:25:04;;;;;;;25.77;11.73;;;3.20;90.50;;;;;;5034192;28;20100;-72
2021/01/03 03:27:29;;;;;;;31.60;14.35;;;3.10;90.50;;;;;;5033917;28;20472;-72
2021/01/03 03:29:55;;;;;;;26.60;13.00;;;3.10;90.60;;;;;;5033801;28;20017;-71
2021/01/03 03:32:21;;;;;;;31.55;15.10;;;3.10;90.50;;;;;;5032175;28;20183;-72
2021/01/03 03:34:46;;;;;;;31.48;14.80;;;3.10;90.70;;;;;;5032369;28;20090;-72
2021/01/03 03:37:12;;;;;;;30.83;16.05;;;3.10;90.70;;;;;;5032366;28;20030;-72
2021/01/03 03:39:38;;;;;;;25.63;13.35;;;3.10;90.80;;;;;;5032294;28;20033;-72
2021/01/03 03:42:04;;;;;;;35.40;15.65;;;3.10;90.90;;;;;;5033337;28;20017;-73
2021/01/03 03:44:30;;;;;;;28.00;14.20;;;3.10;91.00;;;;;;5032133;28;20030;-72
2021/01/03 03:46:58;;;;;;;31.88;14.85;;;3.10;91.10;;;;;;5032222;28;20033;-72
2021/01/03 03:49:24;;;;;;;34.25;16.15;;;3.20;91.10;;;;;;5033646;28;20104;-72
2021/01/03 03:51:54;;;;;;;26.48;13.45;;;3.20;90.80;;;;;;5031752;28;20112;-72
2021/01/03 03:54:21;;;;;;;26.90;14.57;;;3.10;90.60;;;;;;5032214;28;20036;-72
2021/01/03 03:56:57;;;;;;;34.60;15.68;;;3.10;90.40;;;;;;5033240;28;20057;-72
2021/01/03 03:59:24;;;;;;;51.95;17.95;;;3.00;90.40;;;;;;5032205;28;20398;-72
2021/01/03 04:01:51;;;;;;;39.25;16.83;;;3.00;90.50;;;;;;5031760;28;20025;-72
2021/01/03 04:04:17;;;;;;;27.85;14.07;;;3.00;90.50;;;;;;5031484;28;20546;-73
2021/01/03 04:06:43;;;;;;;28.15;13.63;;;3.00;90.50;;;;;;5033288;28;20029;-74
2021/01/03 04:09:10;;;;;;;37.55;17.95;;;3.00;90.40;;;;;;5031812;28;20033;-72
2021/01/03 04:11:47;;;;;;;27.40;12.93;;;2.90;90.40;;;;;;5031874;28;20036;-72
2021/01/03 04:14:15;;;;;;;36.80;15.43;;;2.90;90.30;;;;;;5031703;28;20357;-72
2021/01/03 04:16:46;;;;;;;39.00;17.02;;;2.80;90.30;;;;;;5033657;28;20092;-72
2021/01/03 04:19:12;;;;;;;67.30;27.65;;;2.80;90.40;;;;;;5031647;28;20121;-72
2021/01/03 04:21:38;;;;;;;63.95;26.25;;;2.70;90.30;;;;;;5031849;28;20117;-72
2021/01/03 04:24:05;;;;;;;74.88;29.50;;;2.70;90.30;;;;;;5031492;28;20053;-72
2021/01/03 04:26:31;;;;;;;55.85;24.95;;;2.60;90.40;;;;;;5033205;28;20084;-72
2021/01/03 04:28:56;;;;;;;57.92;22.92;;;2.60;90.40;;;;;;5032974;28;20038;-72
2021/01/03 04:31:22;;;;;;;49.38;20.83;;;2.50;90.30;;;;;;5032998;28;20017;-72
2021/01/03 04:33:48;;;;;;;36.10;15.55;;;2.50;90.40;;;;;;5031782;28;20081;-72
2021/01/03 04:36:15;;;;;;;31.83;15.20;;;2.50;90.30;;;;;;5031363;28;20598;-72
2021/01/03 04:38:41;;;;;;;26.88;12.85;;;2.40;90.30;;;;;;5032924;28;20391;-72
2021/01/03 04:41:17;;;;;;;23.02;11.52;;;2.30;90.10;;;;;;5031313;28;20026;-73
2021/01/03 04:43:43;;;;;;;19.55;9.60;;;2.30;90.10;;;;;;5031945;28;20383;-72
2021/01/03 04:46:13;;;;;;;24.42;11.25;;;2.20;90.20;;;;;;5031267;28;20030;-73
2021/01/03 04:48:40;;;;;;;37.75;17.20;;;2.20;90.40;;;;;;5031745;28;20029;-72
2021/01/03 04:51:26;;;;;;;59.38;16.38;;;2.20;90.50;;;;;;5031604;28;20034;-72
2021/01/03 04:54:23;;;;;;;91.53;18.08;;;2.10;90.60;;;;;;5035658;28;20025;-72
2021/01/03 04:56:55;;;;;;;104.30;18.40;;;2.10;90.60;;;;;;5032401;28;20434;-73
2021/01/03 04:59:49;;;;;;;118.13;17.98;;;2.10;90.60;;;;;;5032867;28;20038;-73
2021/01/03 05:02:35;;;;;;;86.82;13.85;;;2.10;90.70;;;;;;5032429;28;20353;-73
2021/01/03 05:05:22;;;;;;;74.70;14.13;;;2.10;90.50;;;;;;5032903;28;20025;-73
2021/01/03 05:08:18;;;;;;;111.25;16.08;;;2.00;90.40;;;;;;5031522;28;20107;-73
2021/01/03 05:10:45;;;;;;;95.25;16.45;;;2.00;90.40;;;;;;5045361;28;20037;-73
2021/01/03 05:13:20;;;;;;;88.63;14.07;;;1.90;90.30;;;;;;5032730;28;20420;-71
2021/01/03 05:15:46;;;;;;;120.28;17.83;;;1.80;90.30;;;;;;5036304;28;20033;-72
2021/01/03 05:18:12;;;;;;;70.03;13.55;;;1.80;90.30;;;;;;5047464;28;20021;-72
2021/01/03 05:20:38;;;;;;;132.13;18.30;;;1.70;90.40;;;;;;5034739;28;20053;-72
2021/01/03 05:23:19;;;;;;;140.60;21.13;;;1.70;90.50;;;;;;5036017;28;20041;-72
2021/01/03 05:25:46;;;;;;;152.32;18.35;;;1.70;90.70;;;;;;5034686;28;20114;-72
2021/01/03 05:28:25;;;;;;;117.65;18.20;;;1.70;90.70;;;;;;5034658;28;20065;-72
2021/01/03 05:30:52;;;;;;;161.82;18.77;;;1.70;90.80;;;;;;5034460;28;20083;-72
2021/01/03 05:33:29;;;;;;;170.20;20.23;;;1.60;90.40;;;;;;5035627;28;20447;-72
2021/01/03 05:35:55;;;;;;;212.07;23.40;;;1.50;90.30;;;;;;5034601;28;20379;-72
2021/01/03 05:38:54;;;;;;;192.50;21.15;;;1.50;90.30;;;;;;5034698;28;20120;-72
2021/01/03 05:41:44;;;;;;;168.50;20.92;;;1.40;90.60;;;;;;5036908;28;20044;-73
2021/01/03 05:44:26;;;;;;;171.98;21.50;;;1.40;90.70;;;;;;5034443;28;20026;-71
2021/01/03 05:47:01;;;;;;;131.52;18.17;;;1.40;90.80;;;;;;5034663;28;20036;-71
2021/01/03 05:49:28;;;;;;;158.35;20.52;;;1.40;90.80;;;;;;5034551;28;20205;-71
2021/01/03 05:52:26;;;;;;;112.93;18.75;;;1.40;90.70;;;;;;5035066;28;20032;-71
2021/01/03 05:54:53;;;;;;;159.57;23.70;;;1.40;90.70;;;;;;5035368;28;20025;-72
2021/01/03 05:57:32;;;;;;;145.32;25.52;;;1.40;90.80;;;;;;5034437;28;20030;-72
2021/01/03 05:59:58;;;;;;;118.40;20.52;;;1.40;91.00;;;;;;5033759;28;20040;-72
2021/01/03 06:02:26;;;;;;;89.95;20.60;;;1.40;91.10;;;;;;5035581;28;20021;-71
2021/01/03 06:05:15;;;;;;;124.47;24.60;;;1.50;91.10;;;;;;5035828;28;20021;-72
2021/01/03 06:08:02;;;;;;;94.88;24.98;;;1.50;91.10;;;;;;5033960;28;20047;-72
2021/01/03 06:10:34;;;;;;;41.22;12.45;;;1.50;91.20;;;;;;5033844;28;20076;-73
2021/01/03 06:13:03;;;;;;;36.78;13.18;;;1.60;91.10;;;;;;5033877;28;20033;-71
2021/01/03 06:15:35;;;;;;;33.42;14.95;;;1.60;91.10;;;;;;5034052;28;20039;-72
2021/01/03 06:18:01;;;;;;;34.17;11.95;;;1.60;91.20;;;;;;5034936;28;20024;-72
2021/01/03 06:20:29;;;;;;;39.58;13.93;;;1.60;91.20;;;;;;5033722;28;20104;-73
2021/01/03 06:23:09;;;;;;;29.13;12.10;;;1.70;91.20;;;;;;5034389;28;20017;-73
2021/01/03 06:25:43;;;;;;;33.33;15.35;;;1.70;91.10;;;;;;5033666;28;20380;-73
2021/01/03 06:28:23;;;;;;;32.42;13.73;;;1.70;91.20;;;;;;5034625;28;20383;-73
2021/01/03 06:31:04;;;;;;;33.83;13.57;;;1.80;91.20;;;;;;5033525;28;20025;-73
2021/01/03 06:33:39;;;;;;;35.17;15.80;;;1.80;91.20;;;;;;5033106;28;20107;-72
2021/01/03 06:36:12;;;;;;;53.53;19.37;;;1.90;91.30;;;;;;5033301;28;20511;-72
2021/01/03 06:39:02;;;;;;;46.90;19.17;;;1.90;91.20;;;;;;5033691;28;20322;-72
2021/01/03 06:41:53;;;;;;;41.65;17.48;;;1.90;91.30;;;;;;5033451;28;20029;-72
2021/01/03 06:44:50;;;;;;;37.35;17.30;;;1.90;91.40;;;;;;5033630;28;20029;-73
2021/01/03 06:47:43;;;;;;;39.58;17.27;;;2.00;91.20;;;;;;5034645;28;20096;-73
2021/01/03 06:50:37;;;;;;;23.48;11.75;;;2.00;91.20;;;;;;5034230;28;20038;-74
2021/01/03 06:53:39;;;;;;;24.58;12.15;;;2.00;91.20;;;;;;5034587;28;20086;-74
2021/01/03 06:56:28;;;;;;;28.80;14.13;;;2.10;91.20;;;;;;5032656;28;20033;-73
2021/01/03 06:59:33;;;;;;;33.22;16.13;;;2.10;91.30;;;;;;5034208;28;20486;-72
2021/01/03 07:01:59;;;;;;;27.50;12.82;;;2.10;91.30;;;;;;5046521;28;20369;-72
2021/01/03 07:04:30;;;;;;;29.48;14.75;;;2.20;91.30;;;;;;5033092;28;20475;-72
2021/01/03 07:06:59;;;;;;;22.55;12.65;;;2.20;91.10;;;;;;5034273;28;20071;-73
2021/01/03 07:09:25;;;;;;;23.25;12.48;;;2.20;91.20;;;;;;5035829;28;20443;-73
2021/01/03 07:11:56;;;;;;;18.40;9.68;;;2.30;91.40;;;;;;5033887;28;20105;-72
2021/01/03 07:14:22;;;;;;;17.35;9.50;;;2.50;91.50;;;;;;5032798;28;20022;-72
2021/01/03 07:16:58;;;;;;;20.13;10.82;;;2.50;91.20;;;;;;5032740;28;20025;-72
2021/01/03 07:19:51;;;;;;;16.95;9.85;;;2.50;91.00;;;;;;5032325;28;20025;-73
2021/01/03 07:22:22;;;;;;;15.02;8.50;;;2.60;91.10;;;;;;5033024;28;20443;-73
2021/01/03 07:24:50;;;;;;;21.20;11.68;;;2.70;91.00;;;;;;5033887;28;20025;-72
2021/01/03 07:27:25;;;;;;;31.42;13.73;;;2.60;90.70;;;;;;5032503;28;20104;-72
2021/01/03 07:30:03;;;;;;;34.83;14.55;;;2.70;90.80;;;;;;5032032;28;20021;-72
2021/01/03 07:32:37;;;;;;;23.17;11.45;;;2.70;90.60;;;;;;5032505;28;20077;-72
2021/01/03 07:35:20;;;;;;;69.63;28.10;;;2.70;90.60;;;;;;5032531;28;20022;-72
2021/01/03 07:37:48;;;;;;;42.67;16.40;;;2.70;90.80;;;;;;5031618;28;20041;-72
2021/01/03 07:40:17;;;;;;;23.50;11.20;;;2.70;90.50;;;;;;5032090;28;20036;-72
2021/01/03 07:42:45;;;;;;;38.45;15.00;;;2.70;90.50;;;;;;5032367;28;20052;-73
2021/01/03 07:45:14;;;;;;;48.80;20.17;;;2.70;90.70;;;;;;5033741;28;20064;-72
2021/01/03 07:47:50;;;;;;;31.15;14.80;;;2.80;90.80;;;;;;5033826;28;20075;-72
2021/01/03 07:50:15;;;;;;;;;;;2.90;90.80;;;;;;5032381;28;20026;-73
2021/01/03 07:52:42;;;;;;;32.97;15.13;;;3.00;90.80;;;;;;5032218;28;19905;-72
2021/01/03 07:55:24;;;;;;;25.73;13.45;;;3.10;90.40;;;;;;5033168;28;20064;-72
2021/01/03 07:57:58;;;;;;;40.53;19.52;;;3.00;90.10;;;;;;5032002;28;20128;-72
2021/01/03 08:00:25;;;;;;;52.55;20.40;;;3.00;90.00;;;;;;5031913;28;20080;-72
2021/01/03 08:02:56;;;;;;;46.75;19.30;;;2.90;90.00;;;;;;5032018;28;20427;-72
2021/01/03 08:05:24;;;;;;;35.28;18.58;;;2.90;90.10;;;;;;5032966;28;20484;-72
2021/01/03 08:07:50;;;;;;;51.92;24.02;;;2.80;89.70;;;;;;5032114;28;20034;-73
2021/01/03 08:10:17;;;;;;;28.08;13.60;;;2.80;89.90;;;;;;5032049;28;20025;-72
2021/01/03 08:12:53;;;;;;;23.42;13.50;;;2.70;89.40;;;;;;5031757;28;20045;-72
2021/01/03 08:15:23;;;;;;;;;;;2.70;90.30;;;;;;5033664;28;20072;-71
2021/01/03 08:17:49;;;;;;;39.78;17.33;;;2.70;89.90;;;;;;5031149;28;19909;-72
2021/01/03 08:20:23;;;;;;;33.63;16.75;;;2.70;89.70;;;;;;5031902;28;20025;-72
2021/01/03 08:22:48;;;;;;;38.50;19.08;;;2.60;90.00;;;;;;5032983;28;20093;-72
2021/01/03 08:25:29;;;;;;;46.30;19.23;;;2.60;90.00;;;;;;5043398;28;20108;-72
2021/01/03 08:28:19;;;;;;;39.25;18.35;;;2.60;90.20;;;;;;5034136;28;20021;-71
2021/01/03 08:30:48;;;;;;;34.95;17.40;;;2.70;90.40;;;;;;5031908;28;20026;-71
2021/01/03 08:33:22;;;;;;;35.75;16.63;;;2.80;90.90;;;;;;5034295;28;20048;-71
2021/01/03 08:35:48;;;;;;;26.70;14.82;;;2.90;90.70;;;;;;5031800;28;20468;-71
2021/01/03 08:38:20;;;;;;;31.92;16.05;;;3.00;90.30;;;;;;5032817;28;20120;-72
2021/01/03 08:40:46;;;;;;;30.58;14.60;;;3.00;90.30;;;;;;5032847;28;20026;-72
2021/01/03 08:43:23;;;;;;;32.78;16.38;;;3.00;90.20;;;;;;5031611;28;20029;-72
2021/01/03 08:45:50;;;;;;;30.60;15.40;;;3.00;90.00;;;;;;5031496;28;20025;-72
2021/01/03 08:48:22;;;;;;;31.00;16.67;;;3.00;89.80;;;;;;5031283;28;20029;-72
2021/01/03 08:50:49;;;;;;;30.30;15.88;;;3.00;89.90;;;;;;5034807;28;20088;-72
2021/01/03 08:53:24;;;;;;;34.58;18.33;;;3.00;90.00;;;;;;5035059;28;20029;-72
2021/01/03 08:55:59;;;;;;;37.03;18.48;;;3.00;90.10;;;;;;5035303;28;20034;-72
2021/01/03 08:58:37;;;;;;;30.92;17.45;;;3.10;90.40;;;;;;5035349;28;20030;-72
2021/01/03 09:01:05;;;;;;;36.17;19.23;;;3.20;90.20;;;;;;5035594;28;20085;-73
2021/01/03 09:03:34;;;;;;;45.00;24.33;;;3.30;90.30;;;;;;5035022;28;20486;-72
2021/01/03 09:06:00;;;;;;;41.55;22.20;;;3.30;90.10;;;;;;5036506;28;20017;-71
2021/01/03 09:08:32;;;;;;;34.85;19.00;;;3.30;90.10;;;;;;5036595;28;20088;-71
2021/01/03 09:11:08;;;;;;;47.63;25.80;;;3.40;90.40;;;;;;5035101;28;20032;-72
2021/01/03 09:13:43;;;;;;;44.33;22.17;;;3.60;90.60;;;;;;5035321;28;20499;-73
2021/01/03 09:16:45;;;;;;;37.58;19.55;;;3.80;90.80;;;;;;5034500;28;20021;-73
2021/01/03 09:19:11;;;;;;;45.15;21.65;;;3.90;90.00;;;;;;5034857;28;20033;-73
2021/01/03 09:21:47;;;;;;;40.22;21.92;;;3.90;89.30;;;;;;5034942;28;20487;-73
2021/01/03 09:24:24;;;;;;;41.05;22.13;;;3.80;88.40;;;;;;5035953;28;20101;-73
2021/01/03 09:26:52;;;;;;;44.25;22.63;;;3.70;87.70;;;;;;5034615;28;20025;-72
2021/01/03 09:29:25;;;;;;;40.90;21.52;;;3.70;88.80;;;;;;5035607;28;20470;-72
2021/01/03 09:31:58;;;;;;;45.00;24.50;;;3.80;89.80;;;;;;5034571;28;20128;-72
2021/01/03 09:34:32;;;;;;;38.75;22.45;;;3.90;89.30;;;;;;5034639;28;20044;-72
2021/01/03 09:37:19;;;;;;;48.50;25.60;;;3.90;88.40;;;;;;5034723;28;20387;-72
2021/01/03 09:39:48;;;;;;;47.47;26.38;;;3.90;88.10;;;;;;5034629;28;20021;-72
2021/01/03 09:42:37;;;;;;;41.28;22.33;;;3.80;87.90;;;;;;5034703;28;20021;-72
2021/01/03 09:45:34;;;;;;;40.03;20.08;;;3.70;87.50;;;;;;5034389;28;20044;-71
2021/01/03 09:48:00;;;;;;;;;;;3.60;87.30;;;;;;5034425;28;20175;-72
2021/01/03 09:50:42;;;;;;;37.90;19.27;;;3.50;87.50;;;;;;5035794;28;20409;-71
2021/01/03 09:53:19;;;;;;;42.13;22.40;;;3.50;87.60;;;;;;5035462;28;20040;-72
2021/01/03 09:55:58;;;;;;;41.78;20.70;;;3.40;88.40;;;;;;5034303;28;20123;-72
2021/01/03 09:58:35;;;;;;;41.10;21.63;;;3.40;88.30;;;;;;5034216;28;20026;-72
2021/01/03 10:01:01;;;;;;;48.20;23.85;;;3.40;88.50;;;;;;5034730;28;20025;-72
2021/01/03 10:03:45;;;;;;;50.35;23.52;;;3.40;89.00;;;;;;5035501;28;20030;-73
2021/01/03 10:06:43;;;;;;;41.60;20.15;;;3.50;89.50;;;;;;5033769;28;20030;-72
2021/01/03 10:09:23;;;;;;;35.80;18.92;;;3.60;89.30;;;;;;5032297;28;20049;-72
2021/01/03 10:11:49;;;;;;;40.00;20.38;;;3.70;88.90;;;;;;5035218;28;20130;-72
2021/01/03 10:14:29;;;;;;;33.53;18.02;;;3.60;87.90;;;;;;5033800;28;20028;-72
2021/01/03 10:16:56;;;;;;;46.95;24.23;;;3.50;87.10;;;;;;5034062;28;20030;-72
2021/01/03 10:19:23;;;;;;;45.72;22.42;;;3.40;87.10;;;;;;5033684;28;20022;-72
2021/01/03 10:21:50;;;;;;;42.40;19.67;;;3.40;87.60;;;;;;5033928;28;20036;-73
2021/01/03 10:24:26;;;;;;;38.50;20.30;;;3.30;87.90;;;;;;5033863;28;20028;-72
2021/01/03 10:27:04;;;;;;;39.72;21.80;;;3.30;88.50;;;;;;5034997;28;20083;-72
2021/01/03 10:29:32;;;;;;;41.78;22.20;;;3.40;88.90;;;;;;5033568;28;20040;-71
2021/01/03 10:31:58;;;;;;;43.55;22.73;;;3.40;89.10;;;;;;5035021;28;20125;-72
2021/01/03 10:34:24;;;;;;;46.60;23.85;;;3.50;89.70;;;;;;5033772;28;20028;-72
2021/01/03 10:36:57;;;;;;;38.10;20.88;;;3.60;89.40;;;;;;5033422;28;20026;-72
2021/01/03 10:39:24;;;;;;;45.45;22.20;;;3.70;88.80;;;;;;5033325;28;20030;-72
2021/01/03 10:41:50;;;;;;;34.78;18.05;;;3.70;88.70;;;;;;5033107;28;20026;-72
2021/01/03 10:44:17;;;;;;;39.58;19.25;;;3.80;88.50;;;;;;5033451;28;20030;-72
2021/01/03 10:46:45;;;;;;;37.67;20.17;;;3.80;88.70;;;;;;5034388;28;20361;-72
2021/01/03 10:49:11;;;;;;;34.97;18.67;;;3.90;88.90;;;;;;5033243;28;20107;-72
2021/01/03 10:51:43;;;;;;;41.60;18.98;;;4.10;90.00;;;;;;5034501;28;20060;-72
2021/01/03 10:54:12;;;;;;;28.92;17.23;;;4.60;90.40;;;;;;5032862;28;20036;-72
2021/01/03 10:56:38;;;;;;;30.83;17.35;;;5.00;89.80;;;;;;5033058;28;20091;-72
2021/01/03 10:59:05;;;;;;;28.10;17.65;;;5.30;87.80;;;;;;5034368;28;20029;-72
2021/01/03 11:01:31;;;;;;;29.92;16.80;;;5.20;85.20;;;;;;5033001;28;20064;-72
2021/01/03 11:03:57;;;;;;;24.60;14.05;;;4.90;84.10;;;;;;5032606;28;20030;-72
2021/01/03 11:06:23;;;;;;;32.17;16.70;;;4.80;84.40;;;;;;5033022;28;20025;-72
2021/01/03 11:08:49;;;;;;;28.23;16.88;;;4.60;84.10;;;;;;5032556;28;20057;-72
2021/01/03 11:11:20;;;;;;;37.33;17.70;;;4.40;84.40;;;;;;5034115;28;20144;-71
2021/01/03 11:13:46;;;;;;;42.72;20.60;;;4.30;85.00;;;;;;5032933;28;20026;-72
2021/01/03 11:16:12;;;;;;;47.15;24.60;;;4.20;86.10;;;;;;5033700;28;20026;-72
2021/01/03 11:18:38;;;;;;;25.55;15.45;;;4.20;85.50;;;;;;5032859;28;20040;-71
2021/01/03 11:21:10;;;;;;;52.53;26.27;;;4.20;85.50;;;;;;5033825;28;20449;-72
2021/01/03 11:23:39;;;;;;;35.97;18.83;;;4.00;84.90;;;;;;5034186;28;20025;-72
2021/01/03 11:26:05;;;;;;;34.72;17.70;;;3.90;85.10;;;;;;5032367;28;20021;-72
2021/01/03 11:28:31;;;;;;;37.75;18.67;;;3.80;85.70;;;;;;5032461;28;20494;-72
2021/01/03 11:30:57;;;;;;;31.30;17.38;;;3.80;86.00;;;;;;5032623;28;20182;-73
2021/01/03 11:33:23;;;;;;;25.98;13.75;;;3.70;86.40;;;;;;5032370;28;20509;-72
2021/01/03 11:35:49;;;;;;;32.47;16.63;;;3.80;86.80;;;;;;5032234;28;20029;-71
2021/01/03 11:38:14;;;;;;;20.25;11.38;;;3.70;86.30;;;;;;5032262;28;20464;-72
2021/01/03 11:40:40;;;;;;;33.88;17.52;;;3.70;86.30;;;;;;5032192;28;20052;-71
2021/01/03 11:43:06;;;;;;;24.35;12.80;;;3.60;86.00;;;;;;5033176;28;20095;-71
2021/01/03 11:45:32;;;;;;;35.55;17.67;;;3.40;85.80;;;;;;5032364;28;20541;-72
2021/01/03 11:47:57;;;;;;;26.27;14.20;;;3.40;86.00;;;;;;5032922;28;20479;-71
2021/01/03 11:50:24;;;;;;;24.83;13.77;;;3.30;86.00;;;;;;5044794;28;20075;-71
2021/01/03 11:52:50;;;;;;;22.88;12.75;;;3.30;86.30;;;;;;5033951;28;20130;-71
2021/01/03 11:55:19;;;;;;;26.35;13.13;;;3.20;86.50;;;;;;5031886;28;20522;-71
2021/01/03 11:57:45;;;;;;;24.35;13.77;;;3.20;87.00;;;;;;5032146;28;20037;-72
2021/01/03 12:00:13;;;;;;;25.75;13.25;;;3.20;86.70;;;;;;5032667;28;20026;-72
2021/01/03 12:02:39;;;;;;;26.25;13.13;;;3.20;86.90;;;;;;5031483;28;20022;-72
2021/01/03 12:05:06;;;;;;;26.65;13.93;;;3.10;86.80;;;;;;5031804;28;20076;-72
2021/01/03 12:07:32;;;;;;;60.35;20.80;;;3.10;87.40;;;;;;5031699;28;20112;-72
2021/01/03 12:09:58;;;;;;;22.23;11.45;;;3.10;87.50;;;;;;5031862;28;20129;-71
2021/01/03 12:12:24;;;;;;;22.90;11.20;;;3.10;87.10;;;;;;5031714;28;20090;-71
2021/01/03 12:14:50;;;;;;;24.38;12.80;;;3.10;86.80;;;;;;5031807;28;20024;-71
2021/01/03 12:17:21;;;;;;;24.88;13.43;;;3.00;87.10;;;;;;5033527;28;20087;-72
2021/01/03 12:19:48;;;;;;;25.15;13.23;;;3.00;87.60;;;;;;5032973;28;20025;-71
2021/01/03 12:22:15;;;;;;;33.00;14.70;;;3.00;87.50;;;;;;5033037;28;20175;-72
2021/01/03 12:24:41;;;;;;;25.83;13.40;;;3.00;87.60;;;;;;5036261;28;20365;-72
2021/01/03 12:27:14;;;;;;;25.80;11.88;;;3.00;88.00;;;;;;5038277;28;20161;-72
2021/01/03 12:29:40;;;;;;;21.67;12.43;;;3.10;88.30;;;;;;5039826;28;20057;-73
2021/01/03 12:32:11;;;;;;;28.95;14.98;;;3.10;88.20;;;;;;5037599;28;20127;-72
2021/01/03 12:34:37;;;;;;;22.90;12.35;;;3.20;88.40;;;;;;5039527;28;20022;-72
2021/01/03 12:37:07;;;;;;;23.02;11.95;;;3.20;87.80;;;;;;5038533;28;20028;-72
2021/01/03 12:39:33;;;;;;;28.17;13.10;;;3.10;87.20;;;;;;5039521;28;20034;-72
2021/01/03 12:42:00;;;;;;;30.52;15.85;;;3.00;87.10;;;;;;5037878;28;20017;-71
2021/01/03 12:44:26;;;;;;;30.95;14.38;;;3.00;87.20;;;;;;5037931;28;20033;-72
2021/01/03 12:46:52;;;;;;;49.33;21.75;;;2.90;87.50;;;;;;5038171;28;20025;-71
2021/01/03 12:49:18;;;;;;;30.02;14.57;;;2.90;87.60;;;;;;5039455;28;20048;-72
2021/01/03 12:51:44;;;;;;;35.22;17.05;;;2.90;87.80;;;;;;5038011;28;20033;-72
2021/01/03 12:54:11;;;;;;;32.05;15.32;;;2.90;88.00;;;;;;5037793;28;20033;-72
2021/01/03 12:56:36;;;;;;;29.48;14.80;;;2.90;88.30;;;;;;5037824;28;20033;-71